createdAt,value
2023-07-02T00:00:02.387Z,886.00
2023-07-02T00:01:02.389Z,887.00
2023-07-02T00:02:02.478Z,889.00
2023-07-02T00:03:02.648Z,888.00
2023-07-02T00:04:02.576Z,888.00
2023-07-02T00:05:02.597Z,887.00
2023-07-02T00:06:02.669Z,887.00
2023-07-02T00:07:02.775Z,882.00
2023-07-02T00:08:02.798Z,885.00
2023-07-02T00:09:02.884Z,886.00
2023-07-02T00:10:02.900Z,886.00
2023-07-02T00:11:03.027Z,888.00
2023-07-02T00:12:02.999Z,886.00
2023-07-02T00:13:03.042Z,885.00
2023-07-02T00:14:03.109Z,884.00
2023-07-02T00:15:03.198Z,884.00
2023-07-02T00:16:03.216Z,883.00
2023-07-02T00:17:03.308Z,881.00
2023-07-02T00:18:04.236Z,881.00
2023-07-02T00:19:03.381Z,879.00
2023-07-02T00:20:04.235Z,878.00
2023-07-02T00:21:03.511Z,878.00
2023-07-02T00:22:03.558Z,879.00
2023-07-02T00:23:03.664Z,882.00
2023-07-02T00:24:03.750Z,882.00
2023-07-02T00:25:03.742Z,881.00
2023-07-02T00:26:03.780Z,880.00
2023-07-02T00:27:03.833Z,878.00
2023-07-02T00:28:03.894Z,878.00
2023-07-02T00:29:03.974Z,876.00
2023-07-02T00:30:04.010Z,875.00
2023-07-02T00:31:04.133Z,875.00
2023-07-02T00:32:04.201Z,877.00
2023-07-02T00:33:04.239Z,877.00
2023-07-02T00:34:04.239Z,875.00
2023-07-02T00:35:04.329Z,875.00
2023-07-02T00:36:05.201Z,875.00
2023-07-02T00:37:04.430Z,876.00
2023-07-02T00:38:04.465Z,876.00
2023-07-02T00:39:04.524Z,874.00
2023-07-02T00:40:04.595Z,874.00
2023-07-02T00:41:04.635Z,874.00
2023-07-02T00:42:04.693Z,876.00
2023-07-02T00:43:04.747Z,876.00
2023-07-02T00:44:04.806Z,874.00
2023-07-02T00:45:04.848Z,871.00
2023-07-02T00:46:04.980Z,872.00
2023-07-02T00:47:04.950Z,872.00
2023-07-02T00:48:05.066Z,871.00
2023-07-02T00:49:05.062Z,873.00
2023-07-02T00:50:05.122Z,871.00
2023-07-02T00:51:05.168Z,870.00
2023-07-02T00:52:05.202Z,867.00
2023-07-02T00:53:05.263Z,864.00
2023-07-02T00:54:05.312Z,864.00
2023-07-02T00:55:05.369Z,864.00
2023-07-02T00:56:06.210Z,864.00
2023-07-02T00:57:05.477Z,863.00
2023-07-02T00:58:05.535Z,865.00
2023-07-02T00:59:05.604Z,864.00
2023-07-02T01:00:05.674Z,861.00
2023-07-02T01:01:05.718Z,864.00
2023-07-02T01:02:05.826Z,860.00
2023-07-02T01:03:05.950Z,860.00
2023-07-02T01:04:06.745Z,863.00
2023-07-02T01:05:06.024Z,859.00
2023-07-02T01:06:06.008Z,860.00
2023-07-02T01:07:06.060Z,859.00
2023-07-02T01:08:06.132Z,861.00
2023-07-02T01:09:06.194Z,859.00
2023-07-02T01:10:06.252Z,859.00
2023-07-02T01:11:06.302Z,858.00
2023-07-02T01:12:06.359Z,859.00
2023-07-02T01:13:06.412Z,860.00
2023-07-02T01:14:06.507Z,859.00
2023-07-02T01:15:06.537Z,858.00
2023-07-02T01:16:06.636Z,857.00
2023-07-02T01:17:06.651Z,857.00
2023-07-02T01:18:06.796Z,857.00
2023-07-02T01:19:06.778Z,857.00
2023-07-02T01:20:06.833Z,857.00
2023-07-02T01:21:06.903Z,856.00
2023-07-02T01:22:07.030Z,856.00
2023-07-02T01:23:07.038Z,856.00
2023-07-02T01:24:07.115Z,857.00
2023-07-02T01:25:07.142Z,855.00
2023-07-02T01:26:07.212Z,855.00
2023-07-02T01:27:07.256Z,853.00
2023-07-02T01:28:07.319Z,854.00
2023-07-02T01:29:07.383Z,852.00
2023-07-02T01:30:07.527Z,853.00
2023-07-02T01:31:07.534Z,852.00
2023-07-02T01:32:07.577Z,854.00
2023-07-02T01:33:07.679Z,853.00
2023-07-02T01:34:07.689Z,852.00
2023-07-02T01:35:07.740Z,855.00
2023-07-02T01:36:07.837Z,856.00
2023-07-02T01:37:07.836Z,857.00
2023-07-02T01:38:07.919Z,855.00
2023-07-02T01:39:07.969Z,855.00
2023-07-02T01:40:08.043Z,854.00
2023-07-02T01:41:08.084Z,852.00
2023-07-02T01:42:08.159Z,855.00
2023-07-02T01:43:08.199Z,856.00
2023-07-02T01:44:08.262Z,857.00
2023-07-02T01:45:08.331Z,859.00
2023-07-02T01:46:08.416Z,860.00
2023-07-02T01:47:08.425Z,859.00
2023-07-02T01:48:08.497Z,857.00
2023-07-02T01:49:08.564Z,856.00
2023-07-02T01:50:08.640Z,853.00
2023-07-02T01:51:08.762Z,855.00
2023-07-02T01:52:08.747Z,853.00
2023-07-02T01:53:08.795Z,853.00
2023-07-02T01:54:08.883Z,853.00
2023-07-02T01:55:08.904Z,853.00
2023-07-02T01:56:08.976Z,853.00
2023-07-02T01:57:09.002Z,852.00
2023-07-02T01:58:09.067Z,850.00
2023-07-02T01:59:09.132Z,850.00
2023-07-02T02:00:09.193Z,848.00
2023-07-02T02:01:09.316Z,850.00
2023-07-02T02:02:09.311Z,852.00
2023-07-02T02:03:09.434Z,852.00
2023-07-02T02:04:09.453Z,855.00
2023-07-02T02:05:09.480Z,856.00
2023-07-02T02:06:09.537Z,856.00
2023-07-02T02:07:09.616Z,855.00
2023-07-02T02:08:09.662Z,854.00
2023-07-02T02:09:09.824Z,853.00
2023-07-02T02:10:09.775Z,851.00
2023-07-02T02:11:09.831Z,849.00
2023-07-02T02:12:09.890Z,848.00
2023-07-02T02:13:10.036Z,846.00
2023-07-02T02:14:10.030Z,849.00
2023-07-02T02:15:10.077Z,849.00
2023-07-02T02:16:10.204Z,849.00
2023-07-02T02:17:10.292Z,849.00
2023-07-02T02:18:10.257Z,848.00
2023-07-02T02:19:10.343Z,846.00
2023-07-02T02:20:10.393Z,846.00
2023-07-02T02:21:10.534Z,847.00
2023-07-02T02:22:10.503Z,848.00
2023-07-02T02:23:10.559Z,849.00
2023-07-02T02:24:10.617Z,849.00
2023-07-02T02:25:10.670Z,850.00
2023-07-02T02:26:10.722Z,847.00
2023-07-02T02:27:10.788Z,847.00
2023-07-02T02:28:10.846Z,846.00
2023-07-02T02:29:10.906Z,847.00
2023-07-02T02:30:10.978Z,842.00
2023-07-02T02:31:11.102Z,840.00
2023-07-02T02:32:11.127Z,841.00
2023-07-02T02:33:11.195Z,842.00
2023-07-02T02:34:11.208Z,844.00
2023-07-02T02:35:11.254Z,843.00
2023-07-02T02:36:11.296Z,844.00
2023-07-02T02:37:11.363Z,845.00
2023-07-02T02:38:11.421Z,847.00
2023-07-02T02:39:11.501Z,851.00
2023-07-02T02:40:11.555Z,851.00
2023-07-02T02:41:11.629Z,852.00
2023-07-02T02:42:12.272Z,852.00
2023-07-02T02:43:11.736Z,853.00
2023-07-02T02:44:11.781Z,852.00
2023-07-02T02:45:11.842Z,852.00
2023-07-02T02:46:11.930Z,851.00
2023-07-02T02:47:11.910Z,850.00
2023-07-02T02:48:11.958Z,851.00
2023-07-02T02:49:12.021Z,850.00
2023-07-02T02:50:12.071Z,847.00
2023-07-02T02:51:12.118Z,846.00
2023-07-02T02:52:12.769Z,847.00
2023-07-02T02:53:12.217Z,845.00
2023-07-02T02:54:12.274Z,844.00
2023-07-02T02:55:12.324Z,844.00
2023-07-02T02:56:12.389Z,844.00
2023-07-02T02:57:12.433Z,846.00
2023-07-02T02:58:12.489Z,845.00
2023-07-02T02:59:12.646Z,844.00
2023-07-02T03:00:12.600Z,845.00
2023-07-02T03:01:12.729Z,847.00
2023-07-02T03:02:12.739Z,844.00
2023-07-02T03:03:12.901Z,843.00
2023-07-02T03:04:12.898Z,840.00
2023-07-02T03:05:12.926Z,841.00
2023-07-02T03:06:12.972Z,842.00
2023-07-02T03:07:13.027Z,840.00
2023-07-02T03:08:13.090Z,841.00
2023-07-02T03:09:13.146Z,841.00
2023-07-02T03:10:13.211Z,840.00
2023-07-02T03:11:13.251Z,839.00
2023-07-02T03:12:13.340Z,837.00
2023-07-02T03:13:13.395Z,839.00
2023-07-02T03:14:13.417Z,838.00
2023-07-02T03:15:13.487Z,840.00
2023-07-02T03:16:13.536Z,840.00
2023-07-02T03:17:13.578Z,841.00
2023-07-02T03:18:13.657Z,839.00
2023-07-02T03:19:13.619Z,839.00
2023-07-02T03:20:14.281Z,836.00
2023-07-02T03:21:13.710Z,835.00
2023-07-02T03:22:13.737Z,834.00
2023-07-02T03:23:13.780Z,834.00
2023-07-02T03:24:13.824Z,834.00
2023-07-02T03:25:13.885Z,837.00
2023-07-02T03:26:13.906Z,833.00
2023-07-02T03:27:13.976Z,834.00
2023-07-02T03:28:13.949Z,833.00
2023-07-02T03:29:14.072Z,834.00
2023-07-02T03:30:14.114Z,834.00
2023-07-02T03:31:14.175Z,837.00
2023-07-02T03:32:14.098Z,835.00
2023-07-02T03:33:14.125Z,835.00
2023-07-02T03:34:14.151Z,830.00
2023-07-02T03:35:14.784Z,829.00
2023-07-02T03:36:14.245Z,829.00
2023-07-02T03:37:14.280Z,830.00
2023-07-02T03:38:14.797Z,829.00
2023-07-02T03:39:14.377Z,828.00
2023-07-02T03:40:14.399Z,829.00
2023-07-02T03:41:14.446Z,831.00
2023-07-02T03:42:14.469Z,829.00
2023-07-02T03:43:14.516Z,828.00
2023-07-02T03:44:14.540Z,829.00
2023-07-02T03:45:14.589Z,831.00
2023-07-02T03:46:14.617Z,829.00
2023-07-02T03:47:14.662Z,829.00
2023-07-02T03:48:15.299Z,830.00
2023-07-02T03:49:14.626Z,830.00
2023-07-02T03:50:14.633Z,828.00
2023-07-02T03:51:14.634Z,827.00
2023-07-02T03:52:14.646Z,826.00
2023-07-02T03:53:14.666Z,824.00
2023-07-02T03:54:14.805Z,827.00
2023-07-02T03:55:14.759Z,825.00
2023-07-02T03:56:14.817Z,826.00
2023-07-02T03:57:14.829Z,825.00
2023-07-02T03:58:14.853Z,827.00
2023-07-02T03:59:14.873Z,825.00
2023-07-02T04:00:14.929Z,824.00
2023-07-02T04:01:17.025Z,826.00
2023-07-02T04:02:14.966Z,829.00
2023-07-02T04:03:15.071Z,830.00
2023-07-02T04:04:15.073Z,828.00
2023-07-02T04:05:15.406Z,830.00
2023-07-02T04:06:15.032Z,829.00
2023-07-02T04:07:15.066Z,831.00
2023-07-02T04:08:15.094Z,827.00
2023-07-02T04:09:15.136Z,829.00
2023-07-02T04:10:15.151Z,827.00
2023-07-02T04:11:15.217Z,827.00
2023-07-02T04:12:15.215Z,828.00
2023-07-02T04:13:15.806Z,831.00
2023-07-02T04:14:15.284Z,827.00
2023-07-02T04:15:15.406Z,829.00
2023-07-02T04:16:15.371Z,829.00
2023-07-02T04:17:15.380Z,829.00
2023-07-02T04:18:15.414Z,832.00
2023-07-02T04:19:15.441Z,833.00
2023-07-02T04:20:15.435Z,829.00
2023-07-02T04:21:15.430Z,828.00
2023-07-02T04:22:15.439Z,829.00
2023-07-02T04:23:15.448Z,827.00
2023-07-02T04:24:15.455Z,826.00
2023-07-02T04:25:25.670Z,825.00
2023-07-02T04:26:39.900Z,827.00
2023-07-02T04:27:49.316Z,824.00
2023-07-02T04:28:16.445Z,824.00
2023-07-02T04:29:15.435Z,824.00
2023-07-02T04:30:15.470Z,823.00
2023-07-02T04:31:15.446Z,822.00
2023-07-02T04:32:15.431Z,825.00
2023-07-02T04:33:16.448Z,826.00
2023-07-02T04:34:15.442Z,827.00
2023-07-02T04:35:15.415Z,828.00
2023-07-02T04:36:15.402Z,825.00
2023-07-02T04:37:15.383Z,825.00
2023-07-02T04:38:15.444Z,826.00
2023-07-02T04:39:15.387Z,829.00
2023-07-02T04:40:15.442Z,832.00
2023-07-02T04:41:15.373Z,833.00
2023-07-02T04:42:15.360Z,832.00
2023-07-02T04:43:15.363Z,831.00
2023-07-02T04:44:15.350Z,829.00
2023-07-02T04:45:17.542Z,825.00
2023-07-02T04:46:15.458Z,824.00
2023-07-02T04:47:15.332Z,824.00
2023-07-02T04:48:15.333Z,823.00
2023-07-02T04:49:15.397Z,824.00
2023-07-02T04:50:15.325Z,823.00
2023-07-02T04:51:15.314Z,825.00
2023-07-02T04:52:15.307Z,824.00
2023-07-02T04:53:15.320Z,825.00
2023-07-02T04:54:15.307Z,824.00
2023-07-02T04:55:15.310Z,825.00
2023-07-02T04:56:15.287Z,824.00
2023-07-02T04:57:15.278Z,822.00
2023-07-02T04:58:15.278Z,823.00
2023-07-02T04:59:15.281Z,824.00
2023-07-02T05:00:15.355Z,820.00
2023-07-02T05:01:15.317Z,820.00
2023-07-02T05:02:15.254Z,819.00
2023-07-02T05:03:15.314Z,818.00
2023-07-02T05:04:15.281Z,819.00
2023-07-02T05:05:15.283Z,820.00
2023-07-02T05:06:15.239Z,822.00
2023-07-02T05:07:15.298Z,824.00
2023-07-02T05:08:15.213Z,824.00
2023-07-02T05:09:15.196Z,828.00
2023-07-02T05:10:15.190Z,828.00
2023-07-02T05:11:15.179Z,824.00
2023-07-02T05:12:15.157Z,822.00
2023-07-02T05:13:15.189Z,821.00
2023-07-02T05:14:15.140Z,820.00
2023-07-02T05:15:15.139Z,818.00
2023-07-02T05:16:15.172Z,817.00
2023-07-02T05:17:15.128Z,814.00
2023-07-02T05:18:15.111Z,816.00
2023-07-02T05:19:15.113Z,816.00
2023-07-02T05:20:15.120Z,817.00
2023-07-02T05:21:15.084Z,822.00
2023-07-02T05:22:15.492Z,819.00
2023-07-02T05:23:15.070Z,817.00
2023-07-02T05:24:15.092Z,816.00
2023-07-02T05:25:15.051Z,820.00
2023-07-02T05:26:15.041Z,822.00
2023-07-02T05:27:15.017Z,821.00
2023-07-02T05:28:15.006Z,820.00
2023-07-02T05:29:14.993Z,821.00
2023-07-02T05:30:14.989Z,820.00
2023-07-02T05:31:15.030Z,818.00
2023-07-02T05:32:14.991Z,817.00
2023-07-02T05:33:14.961Z,813.00
2023-07-02T05:34:14.970Z,813.00
2023-07-02T05:35:14.959Z,810.00
2023-07-02T05:36:14.954Z,807.00
2023-07-02T05:37:14.965Z,808.00
2023-07-02T05:38:15.849Z,808.00
2023-07-02T05:39:14.932Z,809.00
2023-07-02T05:40:16.289Z,810.00
2023-07-02T05:41:14.905Z,809.00
2023-07-02T05:42:14.887Z,808.00
2023-07-02T05:43:14.880Z,809.00
2023-07-02T05:44:14.893Z,808.00
2023-07-02T05:45:14.947Z,807.00
2023-07-02T05:46:14.878Z,806.00
2023-07-02T05:47:14.901Z,806.00
2023-07-02T05:48:14.845Z,805.00
2023-07-02T05:49:14.848Z,808.00
2023-07-02T05:50:14.827Z,809.00
2023-07-02T05:51:14.815Z,809.00
2023-07-02T05:52:14.797Z,806.00
2023-07-02T05:53:14.800Z,806.00
2023-07-02T05:54:14.791Z,809.00
2023-07-02T05:55:14.856Z,810.00
2023-07-02T05:56:14.785Z,810.00
2023-07-02T05:57:14.783Z,811.00
2023-07-02T05:58:14.773Z,810.00
2023-07-02T05:59:14.776Z,812.00
2023-07-02T06:00:14.794Z,809.00
2023-07-02T06:01:14.762Z,806.00
2023-07-02T06:02:14.766Z,805.00
2023-07-02T06:03:14.858Z,804.00
2023-07-02T06:04:14.834Z,804.00
2023-07-02T06:05:14.895Z,804.00
2023-07-02T06:06:14.737Z,803.00
2023-07-02T06:07:14.734Z,808.00
2023-07-02T06:08:14.800Z,808.00
2023-07-02T06:09:14.732Z,806.00
2023-07-02T06:10:14.719Z,804.00
2023-07-02T06:11:14.710Z,801.00
2023-07-02T06:12:14.701Z,803.00
2023-07-02T06:13:14.689Z,802.00
2023-07-02T06:14:14.683Z,802.00
2023-07-02T06:15:14.672Z,801.00
2023-07-02T06:16:14.696Z,803.00
2023-07-02T06:17:14.650Z,804.00
2023-07-02T06:18:14.715Z,803.00
2023-07-02T06:19:14.635Z,803.00
2023-07-02T06:20:14.620Z,804.00
2023-07-02T06:21:14.876Z,803.00
2023-07-02T06:22:14.614Z,803.00
2023-07-02T06:23:14.610Z,805.00
2023-07-02T06:24:14.600Z,802.00
2023-07-02T06:25:14.610Z,802.00
2023-07-02T06:26:14.677Z,800.00
2023-07-02T06:27:14.562Z,803.00
2023-07-02T06:28:14.632Z,804.00
2023-07-02T06:29:14.551Z,802.00
2023-07-02T06:30:14.560Z,803.00
2023-07-02T06:31:14.604Z,801.00
2023-07-02T06:32:14.540Z,804.00
2023-07-02T06:33:14.545Z,805.00
2023-07-02T06:34:14.528Z,804.00
2023-07-02T06:35:14.519Z,803.00
2023-07-02T06:36:16.882Z,803.00
2023-07-02T06:37:14.498Z,806.00
2023-07-02T06:38:14.487Z,805.00
2023-07-02T06:39:14.526Z,808.00
2023-07-02T06:40:14.472Z,809.00
2023-07-02T06:41:14.502Z,807.00
2023-07-02T06:42:14.467Z,805.00
2023-07-02T06:43:14.438Z,804.00
2023-07-02T06:44:14.433Z,800.00
2023-07-02T06:45:14.436Z,801.00
2023-07-02T06:46:14.490Z,800.00
2023-07-02T06:47:14.406Z,797.00
2023-07-02T06:48:14.388Z,798.00
2023-07-02T06:49:14.395Z,798.00
2023-07-02T06:50:14.384Z,798.00
2023-07-02T06:51:14.376Z,797.00
2023-07-02T06:52:14.365Z,797.00
2023-07-02T06:53:14.345Z,800.00
2023-07-02T06:54:14.350Z,799.00
2023-07-02T06:55:14.356Z,799.00
2023-07-02T06:56:14.314Z,795.00
2023-07-02T06:57:14.315Z,794.00
2023-07-02T06:58:14.312Z,795.00
2023-07-02T06:59:14.302Z,792.00
2023-07-02T07:00:14.308Z,792.00
2023-07-02T07:01:14.276Z,793.00
2023-07-02T07:02:14.274Z,794.00
2023-07-02T07:03:14.251Z,792.00
2023-07-02T07:04:14.410Z,794.00
2023-07-02T07:05:14.245Z,794.00
2023-07-02T07:06:14.242Z,794.00
2023-07-02T07:07:14.228Z,794.00
2023-07-02T07:08:14.224Z,795.00
2023-07-02T07:09:14.929Z,795.00
2023-07-02T07:10:14.207Z,796.00
2023-07-02T07:11:14.199Z,796.00
2023-07-02T07:12:14.186Z,796.00
2023-07-02T07:13:14.184Z,795.00
2023-07-02T07:14:14.240Z,794.00
2023-07-02T07:15:14.393Z,796.00
2023-07-02T07:16:14.167Z,797.00
2023-07-02T07:17:14.405Z,797.00
2023-07-02T07:18:14.206Z,794.00
2023-07-02T07:19:14.154Z,791.00
2023-07-02T07:20:14.143Z,787.00
2023-07-02T07:21:14.138Z,786.00
2023-07-02T07:22:14.124Z,784.00
2023-07-02T07:23:14.124Z,785.00
2023-07-02T07:24:14.188Z,788.00
2023-07-02T07:25:14.111Z,790.00
2023-07-02T07:26:14.076Z,788.00
2023-07-02T07:27:14.078Z,789.00
2023-07-02T07:28:14.071Z,791.00
2023-07-02T07:29:14.057Z,791.00
2023-07-02T07:30:14.058Z,790.00
2023-07-02T07:31:14.091Z,791.00
2023-07-02T07:32:14.069Z,790.00
2023-07-02T07:33:14.081Z,790.00
2023-07-02T07:34:14.017Z,789.00
2023-07-02T07:35:14.012Z,788.00
2023-07-02T07:36:14.005Z,786.00
2023-07-02T07:37:13.995Z,787.00
2023-07-02T07:38:14.000Z,790.00
2023-07-02T07:39:13.995Z,792.00
2023-07-02T07:40:14.056Z,792.00
2023-07-02T07:41:13.968Z,792.00
2023-07-02T07:42:13.961Z,792.00
2023-07-02T07:43:13.989Z,792.00
2023-07-02T07:44:13.962Z,789.00
2023-07-02T07:45:13.958Z,791.00
2023-07-02T07:46:13.995Z,790.00
2023-07-02T07:47:13.974Z,791.00
2023-07-02T07:48:13.935Z,791.00
2023-07-02T07:49:13.913Z,791.00
2023-07-02T07:50:13.925Z,789.00
2023-07-02T07:51:13.914Z,789.00
2023-07-02T07:52:13.904Z,789.00
2023-07-02T07:53:13.898Z,788.00
2023-07-02T07:54:13.894Z,786.00
2023-07-02T07:55:13.943Z,786.00
2023-07-02T07:56:13.880Z,786.00
2023-07-02T07:57:13.882Z,784.00
2023-07-02T07:58:13.879Z,782.00
2023-07-02T07:59:13.881Z,779.00
2023-07-02T08:00:13.902Z,779.00
2023-07-02T08:01:13.873Z,778.00
2023-07-02T08:02:14.049Z,779.00
2023-07-02T08:03:13.898Z,780.00
2023-07-02T08:04:14.460Z,781.00
2023-07-02T08:05:13.930Z,786.00
2023-07-02T08:06:13.855Z,786.00
2023-07-02T08:07:13.849Z,786.00
2023-07-02T08:08:13.846Z,785.00
2023-07-02T08:09:13.854Z,789.00
2023-07-02T08:10:13.853Z,789.00
2023-07-02T08:11:13.831Z,789.00
2023-07-02T08:12:13.888Z,789.00
2023-07-02T08:13:13.815Z,789.00
2023-07-02T08:14:13.813Z,789.00
2023-07-02T08:15:13.812Z,788.00
2023-07-02T08:16:13.836Z,788.00
2023-07-02T08:17:13.796Z,786.00
2023-07-02T08:18:13.793Z,787.00
2023-07-02T08:19:13.783Z,788.00
2023-07-02T08:20:13.781Z,790.00
2023-07-02T08:21:13.761Z,791.00
2023-07-02T08:22:13.764Z,789.00
2023-07-02T08:23:13.755Z,790.00
2023-07-02T08:24:13.761Z,794.00
2023-07-02T08:25:13.752Z,794.00
2023-07-02T08:26:13.821Z,794.00
2023-07-02T08:27:13.737Z,795.00
2023-07-02T08:28:13.751Z,796.00
2023-07-02T08:29:13.830Z,796.00
2023-07-02T08:30:13.730Z,797.00
2023-07-02T08:31:13.759Z,801.00
2023-07-02T08:32:14.425Z,800.00
2023-07-02T08:33:13.703Z,798.00
2023-07-02T08:34:13.700Z,795.00
2023-07-02T08:35:13.695Z,795.00
2023-07-02T08:36:13.691Z,794.00
2023-07-02T08:37:13.688Z,796.00
2023-07-02T08:38:13.675Z,797.00
2023-07-02T08:39:13.670Z,797.00
2023-07-02T08:40:13.666Z,797.00
2023-07-02T08:41:13.659Z,797.00
2023-07-02T08:42:13.645Z,796.00
2023-07-02T08:43:13.642Z,796.00
2023-07-02T08:44:13.733Z,797.00
2023-07-02T08:45:13.641Z,795.00
2023-07-02T08:46:13.642Z,790.00
2023-07-02T08:47:13.711Z,789.00
2023-07-02T08:48:13.661Z,786.00
2023-07-02T08:49:13.637Z,785.00
2023-07-02T08:50:13.624Z,783.00
2023-07-02T08:51:13.681Z,783.00
2023-07-02T08:52:13.612Z,784.00
2023-07-02T08:53:13.603Z,784.00
2023-07-02T08:54:13.644Z,784.00
2023-07-02T08:55:13.697Z,788.00
2023-07-02T08:56:13.735Z,787.00
2023-07-02T08:57:13.780Z,786.00
2023-07-02T08:58:13.826Z,785.00
2023-07-02T08:59:13.948Z,785.00
2023-07-02T09:00:13.975Z,783.00
2023-07-02T09:01:14.098Z,782.00
2023-07-02T09:02:14.089Z,783.00
2023-07-02T09:03:14.532Z,784.00
2023-07-02T09:04:14.295Z,783.00
2023-07-02T09:05:14.323Z,783.00
2023-07-02T09:06:14.326Z,783.00
2023-07-02T09:07:14.378Z,783.00
2023-07-02T09:08:14.425Z,782.00
2023-07-02T09:09:14.465Z,785.00
2023-07-02T09:10:14.549Z,787.00
2023-07-02T09:11:14.596Z,787.00
2023-07-02T09:12:14.635Z,784.00
2023-07-02T09:13:14.685Z,785.00
2023-07-02T09:14:14.727Z,784.00
2023-07-02T09:15:14.767Z,783.00
2023-07-02T09:16:14.882Z,783.00
2023-07-02T09:17:15.023Z,783.00
2023-07-02T09:18:14.881Z,782.00
2023-07-02T09:19:14.925Z,783.00
2023-07-02T09:20:14.980Z,784.00
2023-07-02T09:21:16.037Z,783.00
2023-07-02T09:22:15.034Z,786.00
2023-07-02T09:23:15.085Z,787.00
2023-07-02T09:24:15.117Z,784.00
2023-07-02T09:25:15.163Z,781.00
2023-07-02T09:26:15.197Z,780.00
2023-07-02T09:27:15.233Z,780.00
2023-07-02T09:28:15.279Z,782.00
2023-07-02T09:29:15.346Z,781.00
2023-07-02T09:30:15.396Z,784.00
2023-07-02T09:31:15.484Z,789.00
2023-07-02T09:32:15.493Z,792.00
2023-07-02T09:33:15.650Z,791.00
2023-07-02T09:34:15.708Z,789.00
2023-07-02T09:35:15.770Z,787.00
2023-07-02T09:36:15.716Z,787.00
2023-07-02T09:37:15.786Z,785.00
2023-07-02T09:38:15.846Z,783.00
2023-07-02T09:39:15.949Z,782.00
2023-07-02T09:40:15.973Z,782.00
2023-07-02T09:41:16.044Z,784.00
2023-07-02T09:42:16.104Z,788.00
2023-07-02T09:43:16.168Z,785.00
2023-07-02T09:44:16.281Z,784.00
2023-07-02T09:45:16.332Z,784.00
2023-07-02T09:46:16.420Z,783.00
2023-07-02T09:47:16.434Z,783.00
2023-07-02T09:48:16.511Z,783.00
2023-07-02T09:49:16.547Z,781.00
2023-07-02T09:50:16.608Z,781.00
2023-07-02T09:51:16.707Z,780.00
2023-07-02T09:52:17.661Z,776.00
2023-07-02T09:53:16.655Z,776.00
2023-07-02T09:54:16.637Z,775.00
2023-07-02T09:55:16.695Z,777.00
2023-07-02T09:56:16.615Z,780.00
2023-07-02T09:57:16.622Z,778.00
2023-07-02T09:58:16.606Z,776.00
2023-07-02T09:59:16.629Z,778.00
2023-07-02T10:00:17.086Z,778.00
2023-07-02T10:01:16.722Z,780.00
2023-07-02T10:02:16.754Z,780.00
2023-07-02T10:03:16.822Z,781.00
2023-07-02T10:04:16.936Z,779.00
2023-07-02T10:05:17.089Z,778.00
2023-07-02T10:06:16.988Z,777.00
2023-07-02T10:07:17.051Z,776.00
2023-07-02T10:08:17.118Z,776.00
2023-07-02T10:09:17.187Z,775.00
2023-07-02T10:10:19.319Z,774.00
2023-07-02T10:11:17.262Z,772.00
2023-07-02T10:12:17.247Z,771.00
2023-07-02T10:13:17.236Z,770.00
2023-07-02T10:14:17.251Z,771.00
2023-07-02T10:15:17.238Z,771.00
2023-07-02T10:16:17.262Z,772.00
2023-07-02T10:17:17.283Z,774.00
2023-07-02T10:18:17.243Z,775.00
2023-07-02T10:19:17.195Z,776.00
2023-07-02T10:20:17.412Z,777.00
2023-07-02T10:21:18.036Z,778.00
2023-07-02T10:22:17.181Z,778.00
2023-07-02T10:23:17.168Z,779.00
2023-07-02T10:24:17.194Z,777.00
2023-07-02T10:25:17.144Z,777.00
2023-07-02T10:26:17.166Z,777.00
2023-07-02T10:27:17.144Z,778.00
2023-07-02T10:28:17.134Z,775.00
2023-07-02T10:29:17.117Z,773.00
2023-07-02T10:30:17.111Z,771.00
2023-07-02T10:31:17.989Z,770.00
2023-07-02T10:32:17.081Z,772.00
2023-07-02T10:33:17.099Z,773.00
2023-07-02T10:34:17.063Z,772.00
2023-07-02T10:35:17.094Z,773.00
2023-07-02T10:36:17.054Z,772.00
2023-07-02T10:37:17.045Z,773.00
2023-07-02T10:38:17.137Z,772.00
2023-07-02T10:39:17.036Z,770.00
2023-07-02T10:40:17.011Z,770.00
2023-07-02T10:41:17.018Z,767.00
2023-07-02T10:42:17.010Z,767.00
2023-07-02T10:43:16.993Z,767.00
2023-07-02T10:44:16.990Z,765.00
2023-07-02T10:45:17.005Z,765.00
2023-07-02T10:46:17.005Z,766.00
2023-07-02T10:47:17.063Z,766.00
2023-07-02T10:48:17.110Z,766.00
2023-07-02T10:49:17.156Z,765.00
2023-07-02T10:50:17.489Z,765.00
2023-07-02T10:51:17.283Z,768.00
2023-07-02T10:52:17.349Z,768.00
2023-07-02T10:53:17.414Z,767.00
2023-07-02T10:54:17.453Z,769.00
2023-07-02T10:55:17.528Z,768.00
2023-07-02T10:56:18.520Z,769.00
2023-07-02T10:57:17.636Z,769.00
2023-07-02T10:58:17.704Z,767.00
2023-07-02T10:59:17.771Z,767.00
2023-07-02T11:00:17.831Z,768.00
2023-07-02T11:01:17.918Z,767.00
2023-07-02T11:02:18.009Z,768.00
2023-07-02T11:03:18.212Z,768.00
2023-07-02T11:04:18.091Z,770.00
2023-07-02T11:05:18.146Z,768.00
2023-07-02T11:06:18.187Z,768.00
2023-07-02T11:07:18.249Z,767.00
2023-07-02T11:08:18.342Z,766.00
2023-07-02T11:09:18.363Z,766.00
2023-07-02T11:10:18.419Z,765.00
2023-07-02T11:11:18.456Z,765.00
2023-07-02T11:12:18.508Z,767.00
2023-07-02T11:13:18.563Z,769.00
2023-07-02T11:14:18.618Z,769.00
2023-07-02T11:15:18.692Z,768.00
2023-07-02T11:16:18.725Z,767.00
2023-07-02T11:17:18.908Z,767.00
2023-07-02T11:18:19.142Z,767.00
2023-07-02T11:19:18.903Z,769.00
2023-07-02T11:20:18.949Z,769.00
2023-07-02T11:21:19.506Z,770.00
2023-07-02T11:22:19.035Z,769.00
2023-07-02T11:23:19.091Z,768.00
2023-07-02T11:24:19.142Z,769.00
2023-07-02T11:25:19.197Z,767.00
2023-07-02T11:26:19.292Z,768.00
2023-07-02T11:27:19.345Z,767.00
2023-07-02T11:28:19.341Z,767.00
2023-07-02T11:29:19.420Z,768.00
2023-07-02T11:30:19.430Z,767.00
2023-07-02T11:31:19.497Z,765.00
2023-07-02T11:32:19.622Z,764.00
2023-07-02T11:33:19.559Z,761.00
2023-07-02T11:34:20.431Z,762.00
2023-07-02T11:35:19.671Z,761.00
2023-07-02T11:36:19.585Z,762.00
2023-07-02T11:37:19.574Z,762.00
2023-07-02T11:38:19.557Z,766.00
2023-07-02T11:39:19.548Z,764.00
2023-07-02T11:40:19.549Z,762.00
2023-07-02T11:41:21.682Z,764.00
2023-07-02T11:42:19.520Z,762.00
2023-07-02T11:43:19.503Z,759.00
2023-07-02T11:44:19.510Z,759.00
2023-07-02T11:45:19.473Z,759.00
2023-07-02T11:46:19.473Z,762.00
2023-07-02T11:47:19.550Z,760.00
2023-07-02T11:48:19.460Z,760.00
2023-07-02T11:49:19.450Z,758.00
2023-07-02T11:50:26.776Z,758.00
2023-07-02T11:51:20.493Z,760.00
2023-07-02T11:52:19.396Z,761.00
2023-07-02T11:53:19.401Z,760.00
2023-07-02T11:54:19.460Z,759.00
2023-07-02T11:55:19.351Z,759.00
2023-07-02T11:56:19.341Z,758.00
2023-07-02T11:57:20.021Z,759.00
2023-07-02T11:58:19.324Z,759.00
2023-07-02T11:59:19.365Z,759.00
2023-07-02T12:00:19.453Z,759.00
2023-07-02T12:01:19.484Z,758.00
2023-07-02T12:02:19.544Z,757.00
2023-07-02T12:03:19.639Z,757.00
2023-07-02T12:04:19.648Z,755.00
2023-07-02T12:05:19.656Z,755.00
2023-07-02T12:06:19.710Z,756.00
2023-07-02T12:07:19.738Z,756.00
2023-07-02T12:08:19.785Z,757.00
2023-07-02T12:09:19.832Z,756.00
2023-07-02T12:10:19.893Z,754.00
2023-07-02T12:11:19.966Z,753.00
2023-07-02T12:12:20.067Z,755.00
2023-07-02T12:13:20.040Z,755.00
2023-07-02T12:14:20.085Z,756.00
2023-07-02T12:15:20.129Z,755.00
2023-07-02T12:16:20.311Z,756.00
2023-07-02T12:17:20.318Z,761.00
2023-07-02T12:18:20.294Z,761.00
2023-07-02T12:19:20.344Z,764.00
2023-07-02T12:20:20.536Z,762.00
2023-07-02T12:21:20.460Z,761.00
2023-07-02T12:22:21.029Z,758.00
2023-07-02T12:23:20.563Z,759.00
2023-07-02T12:24:20.643Z,760.00
2023-07-02T12:25:20.768Z,762.00
2023-07-02T12:26:20.725Z,760.00
2023-07-02T12:27:20.801Z,763.00
2023-07-02T12:28:20.876Z,764.00